South Manitou, Michigan
Current Conditions -  °F | °C
As of 9:53 PM on Sunday 21 Dec 2014 (Local Time) from KTVC Reporting Station
Overcast Overcast  
Wind Chill: 28°   Ceiling: 3900
Heat Index: 34°   Visibility: 7mi
Dew Point: 27°   Wind: 7mph
Humidity: 75%   Direction: NA
Pressure: 30.09"   Gusts: NA
Location:  45.1128°N, 86.0164°W
Report Text: KTVC 220253Z VRB06KT 7SM OVC039 01/M03 A3009 RMK AO2 SLP197 T00111028 56006
Loading
Personal Weather Stations






























Interactive Weather Map New forecast layout! Learn more

10-Day Weather Forecast

Advertisements
Track Severe Weather on mobile